sensor_id;sensor_type;location;lat;lon;timestamp;pressure;altitude;pressure_sealevel;temperature;humidity
70730;BME280;58315;53.336;55.932;2023-04-01T00:00:45;100042.19;;;10.09;57.19
70730;BME280;58315;53.336;55.932;2023-04-01T00:03:11;100038.25;;;10.14;57.39
70730;BME280;58315;53.336;55.932;2023-04-01T00:05:37;100027.69;;;10.14;57.42
70730;BME280;58315;53.336;55.932;2023-04-01T00:08:04;100034.88;;;10.12;57.57
70730;BME280;58315;53.336;55.932;2023-04-01T00:10:30;100017.84;;;10.05;57.98
70730;BME280;58315;53.336;55.932;2023-04-01T00:12:56;99988.44;;;10.10;57.43
70730;BME280;58315;53.336;55.932;2023-04-01T00:15:22;99969.97;;;10.10;57.66
70730;BME280;58315;53.336;55.932;2023-04-01T00:17:48;99980.38;;;10.11;57.73
70730;BME280;58315;53.336;55.932;2023-04-01T00:20:15;99985.66;;;10.11;57.95
70730;BME280;58315;53.336;55.932;2023-04-01T00:22:41;99971.97;;;10.18;57.28
70730;BME280;58315;53.336;55.932;2023-04-01T00:25:07;99952.66;;;10.17;57.44
70730;BME280;58315;53.336;55.932;2023-04-01T00:27:34;99945.31;;;10.21;57.25
70730;BME280;58315;53.336;55.932;2023-04-01T00:30:00;99946.41;;;10.18;57.55
70730;BME280;58315;53.336;55.932;2023-04-01T00:32:31;99945.56;;;10.18;57.85
70730;BME280;58315;53.336;55.932;2023-04-01T00:34:57;99955.75;;;10.22;57.46
70730;BME280;58315;53.336;55.932;2023-04-01T00:37:26;100029.56;;;10.24;57.93
70730;BME280;58315;53.336;55.932;2023-04-01T00:39:52;100025.06;;;10.03;58.08
70730;BME280;58315;53.336;55.932;2023-04-01T00:42:18;100021.00;;;9.99;57.86
70730;BME280;58315;53.336;55.932;2023-04-01T00:44:49;100002.97;;;10.04;57.37
70730;BME280;58315;53.336;55.932;2023-04-01T00:47:16;99994.44;;;10.12;56.97
70730;BME280;58315;53.336;55.932;2023-04-01T00:49:45;99992.50;;;10.25;56.86
70730;BME280;58315;53.336;55.932;2023-04-01T00:52:14;99992.94;;;10.30;57.19
70730;BME280;58315;53.336;55.932;2023-04-01T00:54:43;99995.91;;;10.37;56.58
70730;BME280;58315;53.336;55.932;2023-04-01T00:57:25;100004.53;;;10.50;56.20
70730;BME280;58315;53.336;55.932;2023-04-01T00:59:54;100006.97;;;10.42;56.54
70730;BME280;58315;53.336;55.932;2023-04-01T01:02:21;99999.28;;;10.39;56.18
70730;BME280;58315;53.336;55.932;2023-04-01T01:04:47;99994.44;;;10.44;55.98
70730;BME280;58315;53.336;55.932;2023-04-01T01:10:23;99977.19;;;10.40;56.36
70730;BME280;58315;53.336;55.932;2023-04-01T01:12:59;99975.25;;;10.42;55.99
70730;BME280;58315;53.336;55.932;2023-04-01T01:15:37;99944.91;;;10.36;55.60
70730;BME280;58315;53.336;55.932;2023-04-01T01:37:17;99959.34;;;10.32;56.61
70730;BME280;58315;53.336;55.932;2023-04-01T01:39:48;99936.41;;;10.22;56.68
70730;BME280;58315;53.336;55.932;2023-04-01T01:42:15;99943.47;;;10.00;57.83
70730;BME280;58315;53.336;55.932;2023-04-01T01:44:44;99962.00;;;9.89;58.12
70730;BME280;58315;53.336;55.932;2023-04-01T01:47:13;100018.38;;;9.88;58.66
70730;BME280;58315;53.336;55.932;2023-04-01T01:49:40;100029.47;;;9.59;58.94
70730;BME280;58315;53.336;55.932;2023-04-01T01:52:07;100027.22;;;9.44;59.47
70730;BME280;58315;53.336;55.932;2023-04-01T01:54:33;100031.38;;;9.57;59.18
70730;BME280;58315;53.336;55.932;2023-04-01T01:57:07;100022.25;;;9.61;59.10
70730;BME280;58315;53.336;55.932;2023-04-01T01:59:38;100015.53;;;9.69;58.82
70730;BME280;58315;53.336;55.932;2023-04-01T02:02:06;99983.38;;;9.75;58.80
70730;BME280;58315;53.336;55.932;2023-04-01T02:04:36;99978.72;;;9.67;58.23
70730;BME280;58315;53.336;55.932;2023-04-01T02:07:09;99995.00;;;9.72;58.51
70730;BME280;58315;53.336;55.932;2023-04-01T02:09:38;99967.34;;;9.66;58.37
70730;BME280;58315;53.336;55.932;2023-04-01T02:12:07;99975.13;;;9.68;58.82
70730;BME280;58315;53.336;55.932;2023-04-01T02:14:52;99970.31;;;9.73;59.35
70730;BME280;58315;53.336;55.932;2023-04-01T02:17:24;99956.06;;;9.64;59.31
70730;BME280;58315;53.336;55.932;2023-04-01T02:22:22;99982.00;;;9.48;60.12
70730;BME280;58315;53.336;55.932;2023-04-01T02:24:52;99992.75;;;9.56;59.94
70730;BME280;58315;53.336;55.932;2023-04-01T02:27:19;99994.56;;;9.56;60.18
70730;BME280;58315;53.336;55.932;2023-04-01T02:29:46;99996.25;;;9.57;60.36
70730;BME280;58315;53.336;55.932;2023-04-01T02:32:14;100007.38;;;9.60;60.29
70730;BME280;58315;53.336;55.932;2023-04-01T02:34:40;100004.06;;;9.58;60.41
70730;BME280;58315;53.336;55.932;2023-04-01T02:37:07;100016.50;;;9.68;59.94
70730;BME280;58315;53.336;55.932;2023-04-01T02:39:33;100010.50;;;9.77;59.71
70730;BME280;58315;53.336;55.932;2023-04-01T02:42:00;100008.56;;;9.79;59.81
70730;BME280;58315;53.336;55.932;2023-04-01T02:44:26;100008.31;;;9.82;59.48
70730;BME280;58315;53.336;55.932;2023-04-01T02:46:52;100008.66;;;9.88;59.54
70730;BME280;58315;53.336;55.932;2023-04-01T02:49:19;99994.84;;;9.96;58.64
70730;BME280;58315;53.336;55.932;2023-04-01T02:51:45;99997.72;;;9.93;59.24
70730;BME280;58315;53.336;55.932;2023-04-01T02:54:11;100005.66;;;9.93;59.37
70730;BME280;58315;53.336;55.932;2023-04-01T02:56:37;100008.78;;;9.98;59.30
70730;BME280;58315;53.336;55.932;2023-04-01T02:59:03;100010.19;;;10.02;59.54
70730;BME280;58315;53.336;55.932;2023-04-01T03:01:29;100018.22;;;10.01;59.72
70730;BME280;58315;53.336;55.932;2023-04-01T03:03:55;100026.97;;;10.01;59.45
70730;BME280;58315;53.336;55.932;2023-04-01T03:06:21;100029.88;;;10.09;58.67
70730;BME280;58315;53.336;55.932;2023-04-01T03:08:47;100019.75;;;10.14;59.12
70730;BME280;58315;53.336;55.932;2023-04-01T03:11:13;100009.44;;;10.11;58.55
70730;BME280;58315;53.336;55.932;2023-04-01T03:13:40;100018.66;;;10.17;57.99
70730;BME280;58315;53.336;55.932;2023-04-01T03:16:09;100016.13;;;10.27;58.19
70730;BME280;58315;53.336;55.932;2023-04-01T03:18:35;100031.03;;;10.28;58.16
70730;BME280;58315;53.336;55.932;2023-04-01T03:21:19;100038.66;;;10.42;58.21
70730;BME280;58315;53.336;55.932;2023-04-01T03:23:46;100021.06;;;10.31;58.15
70730;BME280;58315;53.336;55.932;2023-04-01T03:26:12;100013.97;;;10.32;58.20
70730;BME280;58315;53.336;55.932;2023-04-01T03:28:39;99995.00;;;10.27;58.00
70730;BME280;58315;53.336;55.932;2023-04-01T03:31:05;100008.22;;;10.27;57.93
70730;BME280;58315;53.336;55.932;2023-04-01T03:33:38;100004.72;;;10.26;58.28
70730;BME280;58315;53.336;55.932;2023-04-01T03:36:04;99991.13;;;10.31;58.12
70730;BME280;58315;53.336;55.932;2023-04-01T03:38:35;99977.56;;;10.35;57.63
70730;BME280;58315;53.336;55.932;2023-04-01T03:41:02;99947.09;;;10.31;57.88
70730;BME280;58315;53.336;55.932;2023-04-01T03:43:28;99940.97;;;10.20;59.34
70730;BME280;58315;53.336;55.932;2023-04-01T03:45:55;99995.34;;;10.22;59.91
70730;BME280;58315;53.336;55.932;2023-04-01T03:48:23;100012.03;;;10.23;60.23
70730;BME280;58315;53.336;55.932;2023-04-01T03:50:51;100005.69;;;10.25;60.03
70730;BME280;58315;53.336;55.932;2023-04-01T03:53:17;100002.75;;;10.40;59.15
70730;BME280;58315;53.336;55.932;2023-04-01T03:55:45;99997.94;;;10.45;58.03
70730;BME280;58315;53.336;55.932;2023-04-01T03:58:12;99996.13;;;10.45;58.00
70730;BME280;58315;53.336;55.932;2023-04-01T04:00:38;99983.81;;;10.55;57.85
70730;BME280;58315;53.336;55.932;2023-04-01T04:03:05;99974.91;;;10.56;57.63
70730;BME280;58315;53.336;55.932;2023-04-01T04:05:34;99992.47;;;10.57;57.38
70730;BME280;58315;53.336;55.932;2023-04-01T04:08:01;99990.78;;;10.56;56.79
70730;BME280;58315;53.336;55.932;2023-04-01T04:10:28;99977.56;;;10.56;56.67
70730;BME280;58315;53.336;55.932;2023-04-01T04:12:55;99969.63;;;10.56;56.60
70730;BME280;58315;53.336;55.932;2023-04-01T04:15:24;99957.28;;;10.57;56.19
70730;BME280;58315;53.336;55.932;2023-04-01T04:17:50;99950.06;;;10.59;56.57
70730;BME280;58315;53.336;55.932;2023-04-01T04:20:17;99956.31;;;10.58;56.39
70730;BME280;58315;53.336;55.932;2023-04-01T04:22:43;99962.00;;;10.53;56.39
70730;BME280;58315;53.336;55.932;2023-04-01T04:25:09;99981.75;;;10.59;56.64
70730;BME280;58315;53.336;55.932;2023-04-01T04:27:36;99952.84;;;10.57;57.15
70730;BME280;58315;53.336;55.932;2023-04-01T04:30:06;99949.00;;;10.71;56.24
70730;BME280;58315;53.336;55.932;2023-04-01T04:32:33;99975.00;;;10.66;56.46
70730;BME280;58315;53.336;55.932;2023-04-01T04:35:00;99999.38;;;10.70;57.02
70730;BME280;58315;53.336;55.932;2023-04-01T04:37:26;99996.97;;;10.67;56.75
70730;BME280;58315;53.336;55.932;2023-04-01T04:39:52;100006.44;;;10.48;57.26
70730;BME280;58315;53.336;55.932;2023-04-01T04:42:18;99998.00;;;10.54;57.63
70730;BME280;58315;53.336;55.932;2023-04-01T04:44:45;99975.38;;;10.61;57.47
70730;BME280;58315;53.336;55.932;2023-04-01T04:47:11;99984.72;;;10.86;57.90
70730;BME280;58315;53.336;55.932;2023-04-01T04:49:37;99983.38;;;11.23;57.55
70730;BME280;58315;53.336;55.932;2023-04-01T04:52:07;99970.44;;;11.29;57.42
70730;BME280;58315;53.336;55.932;2023-04-01T04:54:33;99947.59;;;11.28;56.88
70730;BME280;58315;53.336;55.932;2023-04-01T04:57:01;99970.16;;;11.23;57.10
70730;BME280;58315;53.336;55.932;2023-04-01T04:59:31;99971.38;;;11.19;57.27
70730;BME280;58315;53.336;55.932;2023-04-01T05:02:19;99995.75;;;11.22;57.71
70730;BME280;58315;53.336;55.932;2023-04-01T05:04:46;100003.91;;;11.40;57.44
70730;BME280;58315;53.336;55.932;2023-04-01T05:07:12;99998.69;;;11.59;56.77
70730;BME280;58315;53.336;55.932;2023-04-01T05:09:38;99995.06;;;11.61;55.33
70730;BME280;58315;53.336;55.932;2023-04-01T05:12:04;99990.19;;;11.66;54.73
70730;BME280;58315;53.336;55.932;2023-04-01T05:14:49;99986.75;;;11.75;54.92
70730;BME280;58315;53.336;55.932;2023-04-01T05:17:15;99993.75;;;11.95;54.46
70730;BME280;58315;53.336;55.932;2023-04-01T05:19:41;99985.69;;;12.16;52.63
70730;BME280;58315;53.336;55.932;2023-04-01T05:22:08;99984.31;;;12.41;52.34
70730;BME280;58315;53.336;55.932;2023-04-01T05:24:35;100000.34;;;12.69;51.75
70730;BME280;58315;53.336;55.932;2023-04-01T05:27:00;100001.69;;;12.83;50.55
70730;BME280;58315;53.336;55.932;2023-04-01T05:29:28;100001.25;;;12.97;50.13
70730;BME280;58315;53.336;55.932;2023-04-01T05:32:01;100012.28;;;12.92;50.51
70730;BME280;58315;53.336;55.932;2023-04-01T05:34:28;99990.53;;;12.89;49.58
70730;BME280;58315;53.336;55.932;2023-04-01T05:36:54;99991.72;;;13.14;50.13
70730;BME280;58315;53.336;55.932;2023-04-01T05:39:20;100009.72;;;13.57;49.93
70730;BME280;58315;53.336;55.932;2023-04-01T05:41:46;100007.56;;;13.88;49.36
70730;BME280;58315;53.336;55.932;2023-04-01T05:44:12;100014.47;;;14.44;48.02
70730;BME280;58315;53.336;55.932;2023-04-01T05:46:38;100033.94;;;14.63;47.20
70730;BME280;58315;53.336;55.932;2023-04-01T05:49:12;100041.59;;;14.48;46.49
70730;BME280;58315;53.336;55.932;2023-04-01T05:51:39;100047.84;;;14.11;45.69
70730;BME280;58315;53.336;55.932;2023-04-01T05:54:05;100048.19;;;13.71;46.78
70730;BME280;58315;53.336;55.932;2023-04-01T05:56:31;100049.09;;;13.62;47.63
70730;BME280;58315;53.336;55.932;2023-04-01T05:58:58;100046.34;;;13.54;47.87
70730;BME280;58315;53.336;55.932;2023-04-01T06:01:25;100047.03;;;13.56;48.40
70730;BME280;58315;53.336;55.932;2023-04-01T06:03:51;100046.72;;;13.59;48.55
70730;BME280;58315;53.336;55.932;2023-04-01T06:06:25;100057.66;;;13.83;48.64
70730;BME280;58315;53.336;55.932;2023-04-01T06:08:57;100043.19;;;13.95;48.36
70730;BME280;58315;53.336;55.932;2023-04-01T06:11:36;100061.91;;;14.39;47.76
70730;BME280;58315;53.336;55.932;2023-04-01T06:29:02;100007.34;;;15.83;43.28
70730;BME280;58315;53.336;55.932;2023-04-01T06:37:31;99999.97;;;15.69;43.75
70730;BME280;58315;53.336;55.932;2023-04-01T06:49:50;100012.22;;;15.28;44.38
70730;BME280;58315;53.336;55.932;2023-04-01T06:55:48;100005.78;;;15.38;44.75
70730;BME280;58315;53.336;55.932;2023-04-01T06:58:46;100004.69;;;15.83;45.38
70730;BME280;58315;53.336;55.932;2023-04-01T07:01:20;99998.66;;;15.73;44.42
70730;BME280;58315;53.336;55.932;2023-04-01T07:03:53;100001.03;;;15.93;44.61
70730;BME280;58315;53.336;55.932;2023-04-01T07:06:35;99995.09;;;16.23;43.86
70730;BME280;58315;53.336;55.932;2023-04-01T07:09:11;99987.94;;;16.32;43.57
70730;BME280;58315;53.336;55.932;2023-04-01T07:12:02;100000.63;;;16.54;43.84
70730;BME280;58315;53.336;55.932;2023-04-01T07:15:04;100002.47;;;16.46;42.15
70730;BME280;58315;53.336;55.932;2023-04-01T07:17:37;100014.75;;;16.22;43.16
70730;BME280;58315;53.336;55.932;2023-04-01T07:22:46;100008.63;;;16.54;43.25
70730;BME280;58315;53.336;55.932;2023-04-01T07:25:44;100011.44;;;16.45;42.65
70730;BME280;58315;53.336;55.932;2023-04-01T07:28:31;100015.94;;;16.44;42.64
70730;BME280;58315;53.336;55.932;2023-04-01T07:31:20;100005.91;;;16.05;42.33
70730;BME280;58315;53.336;55.932;2023-04-01T07:34:00;100012.63;;;15.67;42.84
70730;BME280;58315;53.336;55.932;2023-04-01T07:48:31;100013.81;;;16.64;42.37
70730;BME280;58315;53.336;55.932;2023-04-01T07:51:19;100015.16;;;16.76;42.39
70730;BME280;58315;53.336;55.932;2023-04-01T08:05:58;100009.22;;;15.91;41.93
70730;BME280;58315;53.336;55.932;2023-04-01T08:15:23;100018.66;;;15.77;42.23
70730;BME280;58315;53.336;55.932;2023-04-01T08:18:16;100004.34;;;15.86;42.34
70730;BME280;58315;53.336;55.932;2023-04-01T08:21:03;100016.19;;;15.84;42.46
70730;BME280;58315;53.336;55.932;2023-04-01T08:23:37;100001.69;;;15.86;42.54
70730;BME280;58315;53.336;55.932;2023-04-01T08:26:12;100000.22;;;15.92;41.89
70730;BME280;58315;53.336;55.932;2023-04-01T08:28:48;100000.22;;;15.92;41.78
70730;BME280;58315;53.336;55.932;2023-04-01T08:31:25;100008.91;;;16.10;42.05
70730;BME280;58315;53.336;55.932;2023-04-01T08:33:56;100016.06;;;16.02;41.62
70730;BME280;58315;53.336;55.932;2023-04-01T08:36:34;100007.78;;;16.29;41.63
70730;BME280;58315;53.336;55.932;2023-04-01T08:39:36;100015.09;;;16.60;41.13
70730;BME280;58315;53.336;55.932;2023-04-01T08:57:04;100006.47;;;16.91;39.90
70730;BME280;58315;53.336;55.932;2023-04-01T08:59:48;100012.47;;;16.68;40.19
70730;BME280;58315;53.336;55.932;2023-04-01T09:05:38;100000.28;;;16.66;39.83
70730;BME280;58315;53.336;55.932;2023-04-01T09:11:29;99992.78;;;16.69;40.13
70730;BME280;58315;53.336;55.932;2023-04-01T09:37:19;100014.28;;;16.59;38.93
70730;BME280;58315;53.336;55.932;2023-04-01T09:49:18;100018.59;;;16.28;38.72
70730;BME280;58315;53.336;55.932;2023-04-01T09:52:17;100012.53;;;15.93;38.94
70730;BME280;58315;53.336;55.932;2023-04-01T09:55:06;100019.41;;;16.12;39.58
70730;BME280;58315;53.336;55.932;2023-04-01T10:06:07;100015.44;;;16.40;39.16
70730;BME280;58315;53.336;55.932;2023-04-01T10:09:09;100009.59;;;16.29;38.69
70730;BME280;58315;53.336;55.932;2023-04-01T10:25:52;100029.78;;;16.56;38.97
70730;BME280;58315;53.336;55.932;2023-04-01T10:35:07;100025.16;;;16.91;38.93
70730;BME280;58315;53.336;55.932;2023-04-01T10:40:23;100017.31;;;16.97;39.36
70730;BME280;58315;53.336;55.932;2023-04-01T10:54:46;100036.63;;;16.67;39.60
70730;BME280;58315;53.336;55.932;2023-04-01T11:06:47;100018.78;;;16.67;39.56
70730;BME280;58315;53.336;55.932;2023-04-01T11:20:45;100015.94;;;17.09;39.96
70730;BME280;58315;53.336;55.932;2023-04-01T11:32:35;100019.47;;;16.85;40.61
70730;BME280;58315;53.336;55.932;2023-04-01T11:37:56;100012.78;;;16.49;42.00
70730;BME280;58315;53.336;55.932;2023-04-01T11:44:22;100020.78;;;16.65;42.68
70730;BME280;58315;53.336;55.932;2023-04-01T12:01:10;100029.41;;;16.18;44.45
70730;BME280;58315;53.336;55.932;2023-04-01T12:12:14;100055.59;;;14.94;47.44
70730;BME280;58315;53.336;55.932;2023-04-01T12:46:13;100060.81;;;14.60;48.47
70730;BME280;58315;53.336;55.932;2023-04-01T13:00:04;100076.03;;;14.40;49.46
70730;BME280;58315;53.336;55.932;2023-04-01T13:19:54;100088.81;;;13.54;52.70
70730;BME280;58315;53.336;55.932;2023-04-01T13:25:09;100092.09;;;13.18;53.19
70730;BME280;58315;53.336;55.932;2023-04-01T13:27:44;100092.56;;;12.94;53.48
70730;BME280;58315;53.336;55.932;2023-04-01T13:30:39;100086.69;;;13.00;53.51
70730;BME280;58315;53.336;55.932;2023-04-01T13:36:19;100090.34;;;12.80;54.00
70730;BME280;58315;53.336;55.932;2023-04-01T13:39:17;100107.06;;;12.71;54.16
70730;BME280;58315;53.336;55.932;2023-04-01T13:44:34;100103.97;;;12.46;54.63
70730;BME280;58315;53.336;55.932;2023-04-01T13:58:48;100125.81;;;11.79;55.65
70730;BME280;58315;53.336;55.932;2023-04-01T14:06:34;100126.34;;;11.73;55.76
70730;BME280;58315;53.336;55.932;2023-04-01T14:09:15;100128.81;;;11.65;55.99
70730;BME280;58315;53.336;55.932;2023-04-01T14:12:01;100129.03;;;11.52;56.40
70730;BME280;58315;53.336;55.932;2023-04-01T14:17:13;100141.19;;;11.33;56.67
70730;BME280;58315;53.336;55.932;2023-04-01T14:20:22;100140.97;;;11.46;56.26
70730;BME280;58315;53.336;55.932;2023-04-01T14:23:11;100144.84;;;11.42;56.10
70730;BME280;58315;53.336;55.932;2023-04-01T14:50:56;100183.91;;;10.97;55.56
70730;BME280;58315;53.336;55.932;2023-04-01T14:53:37;100176.69;;;10.99;55.23
70730;BME280;58315;53.336;55.932;2023-04-01T14:56:08;100183.13;;;10.85;55.69
70730;BME280;58315;53.336;55.932;2023-04-01T14:58:49;100175.94;;;10.76;55.94
70730;BME280;58315;53.336;55.932;2023-04-01T15:06:45;100193.75;;;10.62;56.46
70730;BME280;58315;53.336;55.932;2023-04-01T15:18:08;100207.47;;;10.45;56.71
70730;BME280;58315;53.336;55.932;2023-04-01T15:32:17;100227.53;;;10.14;57.62
70730;BME280;58315;53.336;55.932;2023-04-01T15:40:56;100233.41;;;10.18;57.15
70730;BME280;58315;53.336;55.932;2023-04-01T15:43:43;100235.56;;;10.01;57.49
70730;BME280;58315;53.336;55.932;2023-04-01T15:54:53;100235.06;;;9.85;57.58
70730;BME280;58315;53.336;55.932;2023-04-01T15:57:32;100233.72;;;9.68;58.22
70730;BME280;58315;53.336;55.932;2023-04-01T16:00:20;100238.28;;;9.66;58.32
70730;BME280;58315;53.336;55.932;2023-04-01T16:02:51;100244.59;;;9.52;58.93
70730;BME280;58315;53.336;55.932;2023-04-01T16:05:34;100245.44;;;9.53;58.47
70730;BME280;58315;53.336;55.932;2023-04-01T16:08:33;100247.97;;;9.54;58.62
70730;BME280;58315;53.336;55.932;2023-04-01T16:11:18;100245.03;;;9.46;58.84
70730;BME280;58315;53.336;55.932;2023-04-01T16:14:01;100237.94;;;9.35;58.86
70730;BME280;58315;53.336;55.932;2023-04-01T16:16:52;100233.50;;;9.36;58.87
70730;BME280;58315;53.336;55.932;2023-04-01T16:22:02;100232.84;;;9.21;59.20
70730;BME280;58315;53.336;55.932;2023-04-01T16:32:50;100234.47;;;9.35;58.25
70730;BME280;58315;53.336;55.932;2023-04-01T16:35:44;100231.81;;;9.35;57.96
70730;BME280;58315;53.336;55.932;2023-04-01T16:48:28;100220.97;;;8.67;59.80
70730;BME280;58315;53.336;55.932;2023-04-01T16:51:04;100216.34;;;8.58;59.71
70730;BME280;58315;53.336;55.932;2023-04-01T16:53:48;100225.97;;;8.59;59.97
70730;BME280;58315;53.336;55.932;2023-04-01T16:56:23;100224.47;;;8.55;60.00
70730;BME280;58315;53.336;55.932;2023-04-01T16:59:07;100231.66;;;8.53;60.13
70730;BME280;58315;53.336;55.932;2023-04-01T17:01:44;100226.41;;;8.53;59.89
70730;BME280;58315;53.336;55.932;2023-04-01T17:04:26;100225.38;;;8.43;60.24
70730;BME280;58315;53.336;55.932;2023-04-01T17:07:11;100226.72;;;8.49;59.76
70730;BME280;58315;53.336;55.932;2023-04-01T17:12:33;100224.78;;;8.63;59.36
70730;BME280;58315;53.336;55.932;2023-04-01T17:17:49;100223.63;;;8.67;59.24
70730;BME280;58315;53.336;55.932;2023-04-01T17:37:20;100220.97;;;8.67;58.60
70730;BME280;58315;53.336;55.932;2023-04-01T17:59:37;100220.50;;;8.37;59.33
70730;BME280;58315;53.336;55.932;2023-04-01T18:03:16;100219.38;;;8.41;59.14
70730;BME280;58315;53.336;55.932;2023-04-01T18:16:17;100207.38;;;8.11;59.60
70730;BME280;58315;53.336;55.932;2023-04-01T18:19:06;100208.63;;;8.18;59.71
70730;BME280;58315;53.336;55.932;2023-04-01T18:21:50;100213.72;;;7.96;60.03
70730;BME280;58315;53.336;55.932;2023-04-01T18:27:00;100215.72;;;8.05;59.51
70730;BME280;58315;53.336;55.932;2023-04-01T18:32:23;100222.66;;;7.81;59.63
70730;BME280;58315;53.336;55.932;2023-04-01T18:35:12;100220.13;;;7.92;59.50
70730;BME280;58315;53.336;55.932;2023-04-01T18:40:35;100217.06;;;7.60;60.22
70730;BME280;58315;53.336;55.932;2023-04-01T18:45:58;100233.44;;;7.25;61.55
70730;BME280;58315;53.336;55.932;2023-04-01T18:59:14;100231.78;;;7.37;61.55
70730;BME280;58315;53.336;55.932;2023-04-01T19:02:25;100241.25;;;7.39;61.43
70730;BME280;58315;53.336;55.932;2023-04-01T19:05:03;100235.03;;;7.53;61.46
70730;BME280;58315;53.336;55.932;2023-04-01T19:10:40;100236.66;;;7.81;60.19
70730;BME280;58315;53.336;55.932;2023-04-01T19:20:56;100240.84;;;7.71;60.73
70730;BME280;58315;53.336;55.932;2023-04-01T19:23:47;100247.28;;;7.80;60.29
70730;BME280;58315;53.336;55.932;2023-04-01T19:29:31;100247.81;;;7.85;60.10
70730;BME280;58315;53.336;55.932;2023-04-01T19:56:19;100255.56;;;7.48;59.71
70730;BME280;58315;53.336;55.932;2023-04-01T20:01:53;100261.97;;;7.44;59.48
70730;BME280;58315;53.336;55.932;2023-04-01T20:04:55;100263.97;;;7.40;59.75
70730;BME280;58315;53.336;55.932;2023-04-01T20:07:38;100270.69;;;7.32;59.86
70730;BME280;58315;53.336;55.932;2023-04-01T20:10:42;100267.09;;;7.33;59.49
70730;BME280;58315;53.336;55.932;2023-04-01T20:16:09;100278.88;;;7.00;60.36
70730;BME280;58315;53.336;55.932;2023-04-01T20:18:59;100269.31;;;6.99;60.85
70730;BME280;58315;53.336;55.932;2023-04-01T20:21:36;100276.44;;;6.97;60.60
70730;BME280;58315;53.336;55.932;2023-04-01T20:26:47;100271.28;;;6.95;60.96
70730;BME280;58315;53.336;55.932;2023-04-01T20:37:42;100274.56;;;6.99;60.92
70730;BME280;58315;53.336;55.932;2023-04-01T20:45:35;100276.25;;;7.00;61.12
70730;BME280;58315;53.336;55.932;2023-04-01T20:50:53;100286.63;;;7.01;60.68
70730;BME280;58315;53.336;55.932;2023-04-01T20:53:36;100288.88;;;7.08;60.35
70730;BME280;58315;53.336;55.932;2023-04-01T20:56:36;100284.38;;;7.10;60.04
70730;BME280;58315;53.336;55.932;2023-04-01T21:04:30;100279.09;;;6.83;59.03
70730;BME280;58315;53.336;55.932;2023-04-01T21:26:59;100272.56;;;5.90;58.67
70730;BME280;58315;53.336;55.932;2023-04-01T21:44:00;100281.03;;;5.95;61.31
70730;BME280;58315;53.336;55.932;2023-04-01T21:52:31;100271.38;;;5.95;61.69
70730;BME280;58315;53.336;55.932;2023-04-01T22:06:15;100276.88;;;5.91;62.05
70730;BME280;58315;53.336;55.932;2023-04-01T22:08:54;100274.16;;;5.92;62.17
70730;BME280;58315;53.336;55.932;2023-04-01T22:11:53;100281.78;;;5.97;61.71
70730;BME280;58315;53.336;55.932;2023-04-01T22:17:38;100277.72;;;5.91;61.97
70730;BME280;58315;53.336;55.932;2023-04-01T22:23:47;100278.03;;;6.01;61.52
70730;BME280;58315;53.336;55.932;2023-04-01T22:31:38;100265.09;;;5.98;61.63
70730;BME280;58315;53.336;55.932;2023-04-01T22:37:31;100271.63;;;5.91;60.95
70730;BME280;58315;53.336;55.932;2023-04-01T22:43:07;100271.13;;;6.00;61.28
70730;BME280;58315;53.336;55.932;2023-04-01T22:48:48;100270.88;;;5.89;61.05
70730;BME280;58315;53.336;55.932;2023-04-01T22:54:02;100271.13;;;5.84;61.27
70730;BME280;58315;53.336;55.932;2023-04-01T22:56:37;100272.91;;;5.84;60.74
70730;BME280;58315;53.336;55.932;2023-04-01T23:01:47;100277.78;;;5.75;60.93
70730;BME280;58315;53.336;55.932;2023-04-01T23:04:18;100275.16;;;5.75;60.67
70730;BME280;58315;53.336;55.932;2023-04-01T23:06:53;100262.41;;;5.69;60.90
70730;BME280;58315;53.336;55.932;2023-04-01T23:09:27;100265.41;;;5.63;60.41
70730;BME280;58315;53.336;55.932;2023-04-01T23:12:01;100266.78;;;5.54;60.84
70730;BME280;58315;53.336;55.932;2023-04-01T23:14:34;100270.25;;;5.55;60.52
70730;BME280;58315;53.336;55.932;2023-04-01T23:35:52;100274.81;;;5.21;60.41
70730;BME280;58315;53.336;55.932;2023-04-01T23:38:25;100264.91;;;5.26;60.39
70730;BME280;58315;53.336;55.932;2023-04-01T23:40:54;100265.63;;;5.14;60.60
70730;BME280;58315;53.336;55.932;2023-04-01T23:43:40;100267.50;;;5.12;61.02
70730;BME280;58315;53.336;55.932;2023-04-01T23:46:08;100267.94;;;4.89;60.84
70730;BME280;58315;53.336;55.932;2023-04-01T23:48:40;100267.31;;;4.99;61.32
70730;BME280;58315;53.336;55.932;2023-04-01T23:51:14;100263.09;;;4.97;61.46
70730;BME280;58315;53.336;55.932;2023-04-01T23:53:45;100266.25;;;4.88;61.17
70730;BME280;58315;53.336;55.932;2023-04-01T23:56:12;100262.34;;;4.95;61.37
